Time;durP1;ratioP1;P1;durP2;ratioP2;P2;SDS_P1;SDS_P2;PMS_P1;PMS_P2;Temp;Humidity;BMP_temperature;BMP_pressure;BME280_temperature;BME280_humidity;BME280_pressure;Samples;Min_cycle;Max_cycle;Signal;HPM_P1;HPM_P2
2023/03/07 00:00:55;;;;;;;17.50;8.82;;;;;;;0.20;100.00;97020.78;4159505;28;20140;-72
2023/03/07 00:02:55;;;;;;;16.58;8.35;;;;;;;0.19;100.00;97016.50;4158786;28;20076;-72
2023/03/07 00:04:55;;;;;;;14.98;8.02;;;;;;;0.15;100.00;97012.88;4159500;28;20037;-72
2023/03/07 00:06:56;;;;;;;14.77;8.10;;;;;;;0.13;100.00;97015.94;4160096;28;20095;-73
2023/03/07 00:08:58;;;;;;;14.32;8.15;;;;;;;0.08;100.00;97007.22;4159868;28;20117;-72
2023/03/07 00:11:04;;;;;;;18.33;9.00;;;;;;;0.08;100.00;97009.94;4159754;28;20055;-72
2023/03/07 00:13:04;;;;;;;17.85;8.50;;;;;;;0.11;100.00;97001.09;4159095;28;20451;-72
2023/03/07 00:15:06;;;;;;;18.08;8.80;;;;;;;0.14;100.00;97001.19;4158666;28;20045;-72
2023/03/07 00:17:06;;;;;;;15.98;8.80;;;;;;;0.14;100.00;96995.75;4159113;28;20041;-72
2023/03/07 00:19:07;;;;;;;15.88;8.65;;;;;;;0.12;100.00;96997.25;4158623;28;20441;-72
2023/03/07 00:21:11;;;;;;;18.45;8.18;;;;;;;0.06;100.00;96995.91;4158928;28;20046;-72
2023/03/07 00:23:11;;;;;;;16.38;8.52;;;;;;;0.02;100.00;96992.31;4159154;28;20422;-72
2023/03/07 00:25:14;;;;;;;16.10;7.95;;;;;;;-0.01;100.00;96997.28;4158774;28;20131;-72
2023/03/07 00:27:14;;;;;;;17.88;8.38;;;;;;;0.07;100.00;96998.28;4159553;28;20037;-72
2023/03/07 00:29:14;;;;;;;17.48;9.65;;;;;;;0.02;100.00;96995.03;4158919;28;20558;-72
2023/03/07 00:31:15;;;;;;;17.33;8.73;;;;;;;0.02;100.00;96995.03;4158941;28;20041;-72
2023/03/07 00:33:15;;;;;;;17.95;8.40;;;;;;;-0.02;100.00;96994.91;4158915;28;20091;-72
2023/03/07 00:35:16;;;;;;;18.55;8.63;;;;;;;0.04;100.00;96992.75;4150704;28;20045;-72
2023/03/07 00:37:16;;;;;;;17.25;8.48;;;;;;;0.02;100.00;96992.31;4153179;28;20170;-72
2023/03/07 00:39:16;;;;;;;16.92;8.23;;;;;;;-0.03;100.00;96982.44;4158184;28;20049;-72
2023/03/07 00:41:19;;;;;;;18.88;8.98;;;;;;;-0.04;100.00;96978.94;4159254;28;20045;-72
2023/03/07 00:43:20;;;;;;;18.40;9.05;;;;;;;-0.11;100.00;96981.44;4157997;28;20049;-72
2023/03/07 00:45:20;;;;;;;17.17;8.73;;;;;;;-0.12;100.00;96974.44;4158603;28;20053;-72
2023/03/07 00:47:20;;;;;;;16.73;8.88;;;;;;;-0.17;100.00;96974.66;4158717;28;20053;-72
2023/03/07 00:49:21;;;;;;;16.88;8.60;;;;;;;-0.19;100.00;96963.34;4159447;28;20116;-72
2023/03/07 00:51:22;;;;;;;22.77;9.15;;;;;;;-0.22;100.00;96958.63;4158704;28;20433;-72
2023/03/07 00:53:23;;;;;;;15.95;8.15;;;;;;;-0.24;100.00;96952.75;4157408;28;20438;-72
2023/03/07 00:55:24;;;;;;;17.10;8.55;;;;;;;-0.29;100.00;96955.69;4159024;28;20493;-72
2023/03/07 00:57:24;;;;;;;17.70;8.00;;;;;;;-0.28;100.00;96949.91;4158440;28;20449;-72
2023/03/07 00:59:24;;;;;;;16.40;7.45;;;;;;;-0.32;100.00;96943.59;4158414;28;20336;-72
2023/03/07 01:01:25;;;;;;;20.70;9.40;;;;;;;-0.30;100.00;96943.25;4158656;28;20149;-72
2023/03/07 01:03:26;;;;;;;17.10;8.48;;;;;;;-0.28;100.00;96939.03;4157980;28;20038;-72
2023/03/07 01:05:27;;;;;;;17.70;8.85;;;;;;;-0.30;100.00;96935.09;4158388;28;20394;-72
2023/03/07 01:07:27;;;;;;;16.40;7.78;;;;;;;-0.35;100.00;96936.09;4157495;28;20049;-72
2023/03/07 01:09:27;;;;;;;16.77;8.02;;;;;;;-0.32;100.00;96930.00;4158508;28;20571;-72
2023/03/07 01:11:29;;;;;;;18.40;8.80;;;;;;;-0.27;100.00;96928.94;4158220;28;20123;-72
2023/03/07 01:13:30;;;;;;;17.35;8.45;;;;;;;-0.32;100.00;96929.22;4157465;28;20046;-72
2023/03/07 01:15:31;;;;;;;17.88;8.80;;;;;;;-0.31;100.00;96933.50;4158207;28;20056;-72
2023/03/07 01:17:32;;;;;;;19.55;8.25;;;;;;;-0.32;100.00;96924.56;4157960;28;20132;-72
2023/03/07 01:19:32;;;;;;;18.00;8.32;;;;;;;-0.29;100.00;96925.78;4158032;28;20128;-72
2023/03/07 01:21:38;;;;;;;16.92;8.93;;;;;;;-0.29;100.00;96925.78;4158350;28;20084;-72
2023/03/07 01:23:38;;;;;;;14.43;7.82;;;;;;;-0.31;100.00;96919.91;4157231;28;20084;-72
2023/03/07 01:25:41;;;;;;;18.77;8.65;;;;;;;-0.29;100.00;96920.34;4158389;28;20045;-72
2023/03/07 01:27:41;;;;;;;16.30;8.18;;;;;;;-0.28;100.00;96917.28;4157320;28;20440;-72
2023/03/07 01:29:41;;;;;;;14.15;8.25;;;;;;;-0.29;100.00;96917.63;4157902;28;20080;-72
2023/03/07 01:31:43;;;;;;;15.15;7.68;;;;;;;-0.26;100.00;96899.84;4157886;28;20356;-72
2023/03/07 01:33:43;;;;;;;18.13;8.68;;;;;;;-0.28;100.00;96900.19;4157311;28;20129;-72
2023/03/07 01:35:43;;;;;;;20.25;9.07;;;;;;;-0.24;100.00;96900.31;4156764;28;20212;-72
2023/03/07 01:37:47;;;;;;;17.23;8.93;;;;;;;-0.20;100.00;96901.97;4157663;28;20107;-72
2023/03/07 01:39:54;;;;;;;21.08;8.82;;;;;;;-0.26;100.00;96887.03;4158160;28;20308;-72
2023/03/07 01:41:54;;;;;;;17.52;8.68;;;;;;;-0.25;100.00;96885.91;4189660;28;20044;-72
2023/03/07 01:43:55;;;;;;;19.00;9.18;;;;;;;-0.24;100.00;96882.06;4157661;28;20102;-72
2023/03/07 01:46:17;;;;;;;16.63;7.45;;;;;;;-0.19;100.00;96887.25;4157642;28;20040;-72
2023/03/07 01:48:17;;;;;;;16.67;8.87;;;;;;;-0.18;100.00;96866.28;4157789;28;20444;-72
2023/03/07 01:50:18;;;;;;;14.65;7.68;;;;;;;-0.18;100.00;96869.00;4189391;28;20050;-72
2023/03/07 01:52:26;;;;;;;15.68;8.75;;;;;;;-0.20;100.00;96852.25;4157100;28;20101;-72
2023/03/07 01:54:29;;;;;;;17.17;8.05;;;;;;;-0.23;100.00;96845.59;4156810;28;20387;-72
2023/03/07 01:56:30;;;;;;;17.42;9.25;;;;;;;-0.23;100.00;96859.19;4157035;28;20053;-72
2023/03/07 01:58:30;;;;;;;20.42;8.95;;;;;;;-0.24;100.00;96845.94;4157279;28;20561;-72
2023/03/07 02:00:31;;;;;;;18.17;8.27;;;;;;;-0.27;100.00;96844.69;4158027;28;20080;-72
2023/03/07 02:02:32;;;;;;;20.05;8.60;;;;;;;-0.31;100.00;96841.91;4156832;28;20548;-72
2023/03/07 02:04:40;;;;;;;19.63;8.67;;;;;;;-0.21;100.00;96843.31;4156908;28;20453;-72
2023/03/07 02:06:40;;;;;;;17.75;9.13;;;;;;;-0.07;100.00;96837.47;4155939;28;20029;-72
2023/03/07 02:08:44;;;;;;;17.95;8.75;;;;;;;-0.10;100.00;96838.16;4157378;28;20049;-72
2023/03/07 02:10:44;;;;;;;17.85;8.82;;;;;;;-0.13;100.00;96838.88;4158075;28;20451;-72
2023/03/07 02:12:45;;;;;;;16.23;8.40;;;;;;;-0.13;100.00;96839.66;4156692;28;20504;-72
2023/03/07 02:14:47;;;;;;;20.13;9.43;;;;;;;-0.14;100.00;96827.19;4157764;28;20053;-72
2023/03/07 02:16:47;;;;;;;;;;;;;;;-0.13;100.00;96828.78;4157863;28;20052;-72
2023/03/07 02:18:49;;;;;;;17.88;8.63;;;;;;;-0.14;100.00;96816.31;4157154;28;19908;-72
2023/03/07 02:21:13;;;;;;;17.20;8.43;;;;;;;-0.15;100.00;96817.47;4157273;28;20428;-72
2023/03/07 02:23:45;;;;;;;20.13;9.23;;;;;;;-0.15;100.00;96822.91;4155709;28;20060;-72
2023/03/07 02:25:50;;;;;;;16.50;8.90;;;;;;;-0.14;100.00;96815.53;4157041;28;20148;-72
2023/03/07 02:27:55;;;;;;;19.15;8.98;;;;;;;-0.14;100.00;96815.53;4156998;28;20041;-72
2023/03/07 02:29:56;;;;;;;19.85;9.05;;;;;;;-0.15;100.00;96803.88;4157504;28;20385;-72
2023/03/07 02:31:56;;;;;;;20.50;9.10;;;;;;;-0.16;100.00;96805.03;4157483;28;20046;-72
2023/03/07 02:33:56;;;;;;;18.17;8.73;;;;;;;-0.13;100.00;96817.13;4156210;28;20105;-72
2023/03/07 02:36:05;;;;;;;21.00;9.82;;;;;;;-0.16;100.00;96802.31;4157174;28;20076;-72
2023/03/07 02:38:06;;;;;;;20.08;9.43;;;;;;;-0.07;100.00;96792.03;4156536;28;20592;-72
2023/03/07 02:40:11;;;;;;;17.73;8.52;;;;;;;-0.04;100.00;96794.06;4188850;28;20370;-72
2023/03/07 02:42:17;;;;;;;16.48;8.15;;;;;;;-0.06;100.00;96784.69;4156347;28;20152;-72
2023/03/07 02:44:17;;;;;;;20.58;8.57;;;;;;;-0.04;100.00;96782.38;4156557;28;20209;-72
2023/03/07 02:46:18;;;;;;;19.58;9.40;;;;;;;-0.05;100.00;96791.69;4156952;28;20090;-72
2023/03/07 02:48:18;;;;;;;18.58;8.43;;;;;;;-0.07;100.00;96785.81;4157223;28;20635;-72
2023/03/07 02:50:19;;;;;;;18.50;8.80;;;;;;;-0.02;100.00;96782.81;4156815;28;20037;-72
2023/03/07 02:52:20;;;;;;;15.82;7.63;;;;;;;-0.01;100.00;96787.13;4157692;28;20087;-72
2023/03/07 02:54:20;;;;;;;21.42;8.95;;;;;;;0.00;100.00;96786.00;4156216;28;20092;-72
2023/03/07 02:56:21;;;;;;;15.65;7.80;;;;;;;-0.04;100.00;96777.75;4157088;28;20365;-72
2023/03/07 02:58:21;;;;;;;18.60;9.00;;;;;;;-0.01;100.00;96768.88;4157300;28;20049;-72
2023/03/07 03:00:22;;;;;;;16.95;8.15;;;;;;;0.01;100.00;96768.53;4156877;28;20041;-72
2023/03/07 03:02:22;;;;;;;15.15;7.95;;;;;;;-0.04;100.00;96760.63;4156516;28;20098;-72
2023/03/07 03:04:22;;;;;;;18.20;8.60;;;;;;;-0.03;100.00;96771.16;4156628;28;20493;-72
2023/03/07 03:06:23;;;;;;;15.52;8.30;;;;;;;-0.02;100.00;96772.75;4157459;28;20041;-72
2023/03/07 03:08:23;;;;;;;16.50;7.90;;;;;;;-0.01;100.00;96760.72;4156570;28;20049;-72
2023/03/07 03:10:23;;;;;;;15.57;7.22;;;;;;;0.00;100.00;96758.81;4157279;28;20474;-72
2023/03/07 03:12:24;;;;;;;16.73;8.00;;;;;;;0.02;100.00;96747.59;4152845;28;20641;-72
2023/03/07 03:14:24;;;;;;;15.10;7.82;;;;;;;-0.01;100.00;96751.78;4154909;28;20047;-72
2023/03/07 03:16:24;;;;;;;19.05;8.85;;;;;;;0.06;100.00;96756.59;4156574;28;20053;-72
2023/03/07 03:18:28;;;;;;;17.60;8.25;;;;;;;0.04;100.00;96750.72;4156665;28;20313;-72
2023/03/07 03:20:29;;;;;;;14.52;7.68;;;;;;;0.02;100.00;96748.38;4156061;28;20099;-72
2023/03/07 03:22:29;;;;;;;14.00;7.55;;;;;;;0.03;100.00;96747.22;4155173;28;20497;-72
2023/03/07 03:24:29;;;;;;;12.63;7.00;;;;;;;0.05;100.00;96744.94;4154598;28;20147;-72
2023/03/07 03:26:30;;;;;;;14.82;7.75;;;;;;;0.04;100.00;96743.38;4156149;28;20132;-72
2023/03/07 03:28:30;;;;;;;15.35;7.70;;;;;;;0.07;100.00;96739.16;4155319;28;20057;-72
2023/03/07 03:30:34;;;;;;;15.93;8.07;;;;;;;0.05;100.00;96733.28;4156264;28;20137;-72
2023/03/07 03:32:39;;;;;;;14.57;7.10;;;;;;;0.09;100.00;96739.59;4155737;28;20053;-72
2023/03/07 03:34:39;;;;;;;14.73;7.43;;;;;;;0.14;100.00;96729.22;4156732;28;20056;-72
2023/03/07 03:36:39;;;;;;;15.43;7.53;;;;;;;0.18;100.00;96732.06;4156224;28;20648;-72
2023/03/07 03:38:40;;;;;;;14.43;6.35;;;;;;;0.19;100.00;96739.06;4156256;28;20045;-72
2023/03/07 03:40:40;;;;;;;16.05;7.38;;;;;;;0.12;100.00;96726.06;4156722;28;20033;-72
2023/03/07 03:42:42;;;;;;;14.98;8.38;;;;;;;0.13;100.00;96724.16;4156315;28;20049;-72
2023/03/07 03:44:42;;;;;;;14.70;6.57;;;;;;;0.17;100.00;96728.53;4156357;28;20050;-72
2023/03/07 03:46:43;;;;;;;12.63;6.63;;;;;;;0.16;100.00;96715.28;4156663;28;20068;-72
2023/03/07 03:48:43;;;;;;;12.93;6.45;;;;;;;0.17;100.00;96714.16;4157055;28;20045;-72
2023/03/07 03:50:43;;;;;;;13.95;6.32;;;;;;;0.14;100.00;96712.13;4156604;28;20049;-72
2023/03/07 03:52:44;;;;;;;14.82;6.45;;;;;;;0.15;100.00;96713.69;4156941;28;20613;-72
2023/03/07 03:54:44;;;;;;;11.20;6.20;;;;;;;0.25;100.00;96707.75;4159771;28;20197;-72
2023/03/07 03:56:44;;;;;;;13.63;6.45;;;;;;;0.31;100.00;96710.97;4159461;28;20068;-72
2023/03/07 03:58:50;;;;;;;9.55;5.88;;;;;;;0.25;100.00;96705.03;4159270;28;20048;-72
2023/03/07 04:00:50;;;;;;;10.82;5.85;;;;;;;0.22;100.00;96711.94;4158474;28;20110;-72
2023/03/07 04:02:50;;;;;;;12.90;6.43;;;;;;;0.19;100.00;96701.00;4158878;28;20489;-72
2023/03/07 04:04:51;;;;;;;11.15;6.22;;;;;;;0.19;100.00;96701.78;4159866;28;20184;-72
2023/03/07 04:06:52;;;;;;;11.40;5.57;;;;;;;0.21;100.00;96701.41;4159615;28;20144;-72
2023/03/07 04:08:53;;;;;;;11.27;6.20;;;;;;;0.17;100.00;96685.03;4158955;28;20052;-72
2023/03/07 04:10:53;;;;;;;12.43;6.10;;;;;;;0.22;100.00;96692.91;4159466;28;20480;-72
2023/03/07 04:12:54;;;;;;;11.90;5.78;;;;;;;0.30;100.00;96693.84;4158740;28;20111;-72
2023/03/07 04:14:54;;;;;;;11.80;5.85;;;;;;;0.27;100.00;96698.06;4159743;28;20049;-72
2023/03/07 04:16:54;;;;;;;11.05;5.93;;;;;;;0.29;100.00;96686.84;4159716;28;20319;-73
2023/03/07 04:18:54;;;;;;;10.55;5.63;;;;;;;0.23;100.00;96691.75;4159288;28;20208;-72
2023/03/07 04:20:55;;;;;;;10.90;5.20;;;;;;;0.20;100.00;96689.75;4159167;28;20129;-72
2023/03/07 04:22:55;;;;;;;11.23;5.53;;;;;;;0.23;100.00;96699.91;4158401;28;20129;-72
2023/03/07 04:24:56;;;;;;;11.75;5.68;;;;;;;0.24;100.00;96692.53;4158730;28;20045;-72
2023/03/07 04:26:56;;;;;;;10.35;5.43;;;;;;;0.27;100.00;96680.97;4159223;28;20111;-72
2023/03/07 04:28:57;;;;;;;11.07;5.30;;;;;;;0.30;100.00;96682.97;4158832;28;20045;-72
2023/03/07 04:30:57;;;;;;;8.73;5.00;;;;;;;0.38;100.00;96683.91;4159151;28;20079;-72
2023/03/07 04:32:58;;;;;;;8.80;5.10;;;;;;;0.40;100.00;96687.06;4158410;28;20122;-72
2023/03/07 04:34:58;;;;;;;9.82;4.78;;;;;;;0.36;100.00;96683.50;4158957;28;20049;-72
2023/03/07 04:36:58;;;;;;;9.75;4.57;;;;;;;0.37;100.00;96674.97;4159369;28;20512;-72
2023/03/07 04:38:59;;;;;;;10.55;5.53;;;;;;;0.33;100.00;96668.66;4158758;28;20050;-72
2023/03/07 04:40:59;;;;;;;7.78;4.70;;;;;;;0.32;100.00;96671.72;4158653;28;20049;-72
2023/03/07 04:43:00;;;;;;;8.25;4.93;;;;;;;0.38;100.00;96673.81;4158216;28;20054;-72
2023/03/07 04:45:00;;;;;;;8.02;4.50;;;;;;;0.40;100.00;96670.75;4158348;28;20053;-72
2023/03/07 04:47:00;;;;;;;9.65;5.38;;;;;;;0.41;100.00;96661.44;4154865;28;20485;-72
2023/03/07 04:49:01;;;;;;;9.55;4.55;;;;;;;0.44;100.00;96668.91;4157970;28;20045;-72
2023/03/07 04:51:01;;;;;;;9.60;5.28;;;;;;;0.45;100.00;96667.75;4158717;28;20418;-72
2023/03/07 04:53:01;;;;;;;9.52;5.20;;;;;;;0.45;100.00;96654.94;4157556;28;20139;-72
2023/03/07 04:55:02;;;;;;;9.80;5.38;;;;;;;0.49;100.00;96672.09;4158248;28;20039;-73
2023/03/07 04:57:03;;;;;;;8.77;5.25;;;;;;;0.50;100.00;96664.75;4155961;28;20050;-73
2023/03/07 04:59:03;;;;;;;10.88;5.00;;;;;;;0.52;100.00;96670.63;4156644;28;20493;-72
2023/03/07 05:01:04;;;;;;;7.35;4.10;;;;;;;0.53;100.00;96666.75;4154679;28;20081;-73
2023/03/07 05:03:05;;;;;;;10.05;5.78;;;;;;;0.48;100.00;96670.53;4154102;28;20056;-73
2023/03/07 05:05:06;;;;;;;9.52;5.05;;;;;;;0.46;100.00;96672.84;4155667;28;20052;-73
2023/03/07 05:07:06;;;;;;;10.57;5.10;;;;;;;0.49;100.00;96671.31;4156099;28;20322;-73
2023/03/07 05:09:06;;;;;;;10.27;4.63;;;;;;;0.43;100.00;96670.84;4157316;28;20044;-73
2023/03/07 05:11:07;;;;;;;7.82;4.45;;;;;;;0.45;100.00;96671.25;4154840;28;20038;-73
2023/03/07 05:13:07;;;;;;;8.48;4.50;;;;;;;0.45;100.00;96673.19;4156589;28;20136;-73
2023/03/07 05:15:08;;;;;;;10.35;4.68;;;;;;;0.45;100.00;96662.31;4156485;28;20045;-73
2023/03/07 05:17:09;;;;;;;8.50;5.03;;;;;;;0.45;100.00;96676.69;4157651;28;20046;-73
2023/03/07 05:19:09;;;;;;;10.43;4.60;;;;;;;0.55;100.00;96662.53;4157556;28;20099;-73
2023/03/07 05:21:09;;;;;;;9.10;5.40;;;;;;;0.53;100.00;96664.03;4157795;28;20044;-73
2023/03/07 05:23:10;;;;;;;8.07;4.32;;;;;;;0.58;100.00;96658.31;4156336;28;20057;-73
2023/03/07 05:25:10;;;;;;;8.32;4.93;;;;;;;0.60;100.00;96658.75;4155216;28;20053;-73
2023/03/07 05:27:11;;;;;;;7.82;4.57;;;;;;;0.57;100.00;96646.63;4157391;28;20075;-73
2023/03/07 05:29:11;;;;;;;10.25;5.10;;;;;;;0.61;100.00;96659.53;4156848;28;20309;-73
2023/03/07 05:31:11;;;;;;;9.25;5.22;;;;;;;0.61;100.00;96657.59;4157675;28;20071;-73
2023/03/07 05:33:12;;;;;;;10.27;5.20;;;;;;;0.63;100.00;96668.13;4156798;28;20135;-73
2023/03/07 05:35:13;;;;;;;8.52;4.60;;;;;;;0.64;100.00;96658.81;4156330;28;20125;-73
2023/03/07 05:37:13;;;;;;;10.15;5.60;;;;;;;0.63;100.00;96660.75;4156713;28;20118;-72
2023/03/07 05:39:14;;;;;;;8.68;4.47;;;;;;;0.64;100.00;96656.09;4156795;28;20072;-73
2023/03/07 05:41:16;;;;;;;8.45;4.60;;;;;;;0.64;100.00;96662.31;4157145;28;20057;-73
2023/03/07 05:43:16;;;;;;;9.73;4.93;;;;;;;0.60;100.00;96653.31;4156906;28;20041;-73
2023/03/07 05:45:16;;;;;;;9.35;4.85;;;;;;;0.57;100.00;96660.22;4157235;28;20068;-73
2023/03/07 05:47:17;;;;;;;8.25;4.50;;;;;;;0.54;100.00;96660.97;4156978;28;20045;-73
2023/03/07 05:49:17;;;;;;;8.82;4.22;;;;;;;0.57;100.00;96660.22;4154362;28;20141;-73
2023/03/07 05:51:17;;;;;;;7.47;4.00;;;;;;;0.53;100.00;96650.44;4156479;28;20076;-73
2023/03/07 05:53:18;;;;;;;7.30;4.18;;;;;;;0.51;100.00;96655.44;4156889;28;20040;-73
2023/03/07 05:55:18;;;;;;;7.78;4.35;;;;;;;0.51;100.00;96658.16;4157461;28;20033;-73
2023/03/07 05:57:19;;;;;;;8.43;4.15;;;;;;;0.51;100.00;96658.16;4157602;28;20440;-73
2023/03/07 05:59:19;;;;;;;7.38;4.00;;;;;;;0.48;100.00;96653.44;4156257;28;20042;-73
2023/03/07 06:01:19;;;;;;;7.85;4.28;;;;;;;0.51;100.00;96655.44;4156478;28;20133;-73
2023/03/07 06:03:20;;;;;;;8.52;4.68;;;;;;;0.50;100.00;96659.31;4157345;28;20365;-73
2023/03/07 06:05:20;;;;;;;7.00;4.28;;;;;;;0.53;100.00;96651.22;4158010;28;20120;-73
2023/03/07 06:07:20;;;;;;;7.45;4.40;;;;;;;0.53;100.00;96656.66;4157393;28;20119;-73
2023/03/07 06:09:22;;;;;;;7.18;3.95;;;;;;;0.59;100.00;96653.66;4157510;28;20366;-73
2023/03/07 06:11:22;;;;;;;8.73;4.20;;;;;;;0.55;100.00;96653.59;4158053;28;20049;-73
2023/03/07 06:13:24;;;;;;;7.85;4.53;;;;;;;0.57;100.00;96652.06;4156502;28;20075;-73
2023/03/07 06:15:24;;;;;;;8.48;4.22;;;;;;;0.59;100.00;96659.13;4155716;28;20502;-73
2023/03/07 06:17:24;;;;;;;8.35;4.05;;;;;;;0.59;100.00;96650.94;4156027;28;20048;-73
2023/03/07 06:19:25;;;;;;;6.93;3.78;;;;;;;0.57;100.00;96654.78;4156220;28;20053;-73
2023/03/07 06:21:25;;;;;;;7.68;4.38;;;;;;;0.62;100.00;96648.28;4057882;28;20046;-73
2023/03/07 06:23:27;;;;;;;7.07;4.03;;;;;;;0.68;100.00;96649.59;4151419;28;20057;-73
2023/03/07 06:25:28;;;;;;;6.85;4.30;;;;;;;0.69;100.00;96653.09;4157704;28;20073;-73
2023/03/07 06:27:32;;;;;;;8.27;4.70;;;;;;;0.71;100.00;96662.47;4157108;28;20030;-73
2023/03/07 06:29:32;;;;;;;7.25;4.40;;;;;;;0.73;100.00;96649.28;4153711;28;20076;-73
2023/03/07 06:31:32;;;;;;;7.30;4.35;;;;;;;0.77;100.00;96663.00;4157133;28;20098;-73
2023/03/07 06:33:33;;;;;;;10.20;4.97;;;;;;;0.83;100.00;96650.66;4156029;28;20059;-73
2023/03/07 06:35:33;;;;;;;10.30;5.20;;;;;;;0.86;100.00;96647.22;4156523;28;20087;-73
2023/03/07 06:37:34;;;;;;;8.45;4.93;;;;;;;0.86;100.00;96649.94;4156104;28;20081;-73
2023/03/07 06:39:34;;;;;;;10.15;4.97;;;;;;;0.94;100.00;96645.44;4155533;28;20438;-73
2023/03/07 06:41:34;;;;;;;6.97;4.40;;;;;;;0.98;100.00;96644.34;4154801;28;20155;-73
2023/03/07 06:43:35;;;;;;;7.90;4.57;;;;;;;0.95;100.00;96636.91;4155107;28;20049;-73
2023/03/07 06:45:36;;;;;;;8.20;4.43;;;;;;;0.94;100.00;96634.53;4155591;28;20245;-73
2023/03/07 06:47:36;;;;;;;8.90;4.82;;;;;;;1.06;100.00;96637.88;4154828;28;20049;-73
2023/03/07 06:49:36;;;;;;;8.55;5.63;;;;;;;1.13;100.00;96643.47;4154503;28;20065;-73
2023/03/07 06:51:36;;;;;;;8.75;4.55;;;;;;;1.16;100.00;96635.69;4153404;28;20133;-73
2023/03/07 06:53:37;;;;;;;8.57;4.55;;;;;;;1.18;100.00;96634.22;4154633;28;20106;-73
2023/03/07 06:55:37;;;;;;;10.27;4.90;;;;;;;1.17;100.00;96634.59;4156875;28;20045;-73
2023/03/07 06:57:38;;;;;;;9.15;5.53;;;;;;;1.24;100.00;96631.97;4156922;28;20313;-73
2023/03/07 06:59:38;;;;;;;10.35;5.00;;;;;;;1.30;100.00;96646.88;4157106;28;20045;-73
2023/03/07 07:01:39;;;;;;;7.93;4.47;;;;;;;1.31;100.00;96635.59;4156204;28;20095;-73
2023/03/07 07:03:39;;;;;;;8.07;4.72;;;;;;;1.29;100.00;96637.91;4156359;28;20102;-73
2023/03/07 07:05:39;;;;;;;8.13;5.40;;;;;;;1.30;100.00;96644.94;4156200;28;20046;-73
2023/03/07 07:07:40;;;;;;;7.97;4.47;;;;;;;1.37;100.00;96626.00;4156312;28;20053;-73
2023/03/07 07:09:40;;;;;;;8.25;4.47;;;;;;;1.39;100.00;96640.03;4156572;28;20041;-72
2023/03/07 07:11:40;;;;;;;8.25;4.32;;;;;;;1.41;100.00;96645.13;4156461;28;20385;-73
2023/03/07 07:13:41;;;;;;;10.57;5.63;;;;;;;1.41;100.00;96645.13;4155604;28;20045;-73
2023/03/07 07:15:41;;;;;;;10.23;5.63;;;;;;;1.48;100.00;96641.72;4156131;28;20293;-73
2023/03/07 07:17:41;;;;;;;7.50;4.05;;;;;;;1.48;100.00;96637.06;4156415;28;20044;-73
2023/03/07 07:19:42;;;;;;;8.95;5.47;;;;;;;1.55;100.00;96633.69;4157354;28;20051;-73
2023/03/07 07:21:42;;;;;;;9.43;5.32;;;;;;;1.58;100.00;96644.66;4157607;28;20056;-73
2023/03/07 07:23:42;;;;;;;9.50;5.00;;;;;;;1.59;100.00;96645.44;4157306;28;20364;-73
2023/03/07 07:25:43;;;;;;;8.18;4.95;;;;;;;1.61;100.00;96630.28;4157187;28;20061;-73
2023/03/07 07:27:43;;;;;;;8.98;5.00;;;;;;;1.63;100.00;96638.09;4158481;28;20120;-72
2023/03/07 07:29:43;;;;;;;9.57;4.70;;;;;;;1.67;100.00;96634.28;4160878;28;20037;-72
2023/03/07 07:31:43;;;;;;;11.77;5.85;;;;;;;1.70;100.00;96638.22;4161142;28;20475;-73
2023/03/07 07:33:45;;;;;;;9.70;5.63;;;;;;;1.79;100.00;96638.75;4160231;28;20049;-73
2023/03/07 07:35:45;;;;;;;10.27;5.47;;;;;;;1.79;100.00;96644.22;4160555;28;20049;-73
2023/03/07 07:37:46;;;;;;;10.07;5.25;;;;;;;1.90;100.00;96634.28;4160762;28;20057;-73
2023/03/07 07:39:48;;;;;;;10.25;5.53;;;;;;;1.92;100.00;96620.25;4160077;28;20488;-73
2023/03/07 07:41:49;;;;;;;11.00;6.13;;;;;;;1.89;100.00;96640.06;4160230;28;20385;-72
2023/03/07 07:43:52;;;;;;;8.07;5.45;;;;;;;1.90;100.00;96623.38;4160051;28;20235;-73
2023/03/07 07:45:52;;;;;;;10.13;4.93;;;;;;;1.88;100.00;96628.38;4160643;28;20048;-73
2023/03/07 07:47:53;;;;;;;10.30;5.63;;;;;;;1.93;100.00;96635.47;4160087;28;20306;-73
2023/03/07 07:49:53;;;;;;;8.88;5.30;;;;;;;1.93;100.00;96627.28;4160218;28;20481;-73
2023/03/07 07:51:53;;;;;;;9.73;5.43;;;;;;;1.95;100.00;96624.97;4160713;28;20156;-73
2023/03/07 07:53:54;;;;;;;10.60;6.20;;;;;;;2.02;100.00;96622.38;4159277;28;20048;-73
2023/03/07 07:55:54;;;;;;;11.70;6.32;;;;;;;2.11;100.00;96617.44;4160270;28;20029;-72
2023/03/07 07:57:54;;;;;;;9.35;5.75;;;;;;;2.12;100.00;96624.47;4160106;28;20038;-73
2023/03/07 07:59:55;;;;;;;10.23;5.72;;;;;;;2.18;100.00;96627.66;4160238;28;20039;-73
2023/03/07 08:01:55;;;;;;;10.82;5.97;;;;;;;2.20;100.00;96626.13;4160543;28;20049;-73
2023/03/07 08:03:56;;;;;;;11.95;6.13;;;;;;;2.25;100.00;96606.72;4159022;28;20076;-73
2023/03/07 08:05:56;;;;;;;10.43;6.00;;;;;;;2.27;100.00;96609.06;4160292;28;20037;-73
2023/03/07 08:07:56;;;;;;;8.93;6.15;;;;;;;2.31;100.00;96626.28;4160422;28;20382;-73
2023/03/07 08:09:56;;;;;;;11.10;6.32;;;;;;;2.32;100.00;96614.22;4159741;28;20041;-72
2023/03/07 08:11:57;;;;;;;10.77;6.20;;;;;;;2.35;100.00;96608.03;4160254;28;20041;-73
2023/03/07 08:13:57;;;;;;;11.05;6.40;;;;;;;2.32;100.00;96610.69;4159372;28;20053;-73
2023/03/07 08:15:57;;;;;;;10.43;5.72;;;;;;;2.42;100.00;96604.59;4159685;28;20044;-73
2023/03/07 08:17:58;;;;;;;10.73;6.13;;;;;;;2.43;100.00;96606.16;4160358;28;20434;-73
2023/03/07 08:20:00;;;;;;;13.80;6.93;;;;;;;2.52;100.00;96606.69;4160046;28;20115;-73
2023/03/07 08:22:01;;;;;;;11.38;7.10;;;;;;;2.49;100.00;96604.69;4160024;28;20076;-73
2023/03/07 08:24:01;;;;;;;10.35;5.28;;;;;;;2.50;100.00;96603.53;4158651;28;20390;-73
2023/03/07 08:26:06;;;;;;;10.48;5.63;;;;;;;2.49;100.00;96604.69;4160183;28;20061;-73
2023/03/07 08:28:06;;;;;;;10.55;6.20;;;;;;;2.51;100.00;96610.56;4158971;28;20033;-73
2023/03/07 08:30:07;;;;;;;11.02;5.82;;;;;;;2.60;100.00;96594.69;4159953;28;20029;-73
2023/03/07 08:32:08;;;;;;;9.73;5.55;;;;;;;2.59;100.00;96608.72;4159665;28;20370;-73
2023/03/07 08:34:08;;;;;;;12.40;7.03;;;;;;;2.58;100.00;96607.94;4159261;28;20029;-73
2023/03/07 08:36:09;;;;;;;8.98;5.55;;;;;;;2.63;100.00;96593.94;4159481;28;20033;-73
2023/03/07 08:38:09;;;;;;;10.60;6.22;;;;;;;2.66;100.00;96585.03;4159465;28;20370;-73
2023/03/07 08:40:10;;;;;;;9.88;6.28;;;;;;;2.66;100.00;96604.13;4158891;28;20040;-73
2023/03/07 08:42:10;;;;;;;11.45;6.57;;;;;;;2.73;100.00;96597.94;4159424;28;20034;-73
2023/03/07 08:44:10;;;;;;;10.18;5.95;;;;;;;2.76;100.00;96603.47;4158747;28;20453;-73
2023/03/07 08:46:11;;;;;;;12.00;6.22;;;;;;;2.73;100.00;96601.50;4159547;28;20120;-73
2023/03/07 08:48:12;;;;;;;10.82;6.35;;;;;;;2.76;100.00;96605.41;4159643;28;20025;-73
2023/03/07 08:50:12;;;;;;;8.93;5.35;;;;;;;2.76;100.00;96589.81;4159377;28;20034;-73
2023/03/07 08:52:12;;;;;;;11.73;5.88;;;;;;;2.73;100.00;96593.31;4158269;28;20033;-73
2023/03/07 08:54:13;;;;;;;11.88;5.55;;;;;;;2.75;100.00;96604.63;4158493;28;20088;-73
2023/03/07 08:56:16;;;;;;;11.48;6.35;;;;;;;2.81;100.00;96597.69;4159293;28;20029;-73
2023/03/07 08:58:16;;;;;;;11.25;5.93;;;;;;;2.79;100.00;96591.78;4159506;28;20024;-73
2023/03/07 09:00:17;;;;;;;12.75;6.45;;;;;;;2.85;100.00;96594.19;4159460;28;20029;-73
2023/03/07 09:02:17;;;;;;;10.93;6.05;;;;;;;2.89;100.00;96586.81;4159761;28;20026;-73
2023/03/07 09:04:17;;;;;;;9.00;5.50;;;;;;;2.93;100.00;96601.31;4158912;28;20116;-73
2023/03/07 09:06:19;;;;;;;9.95;6.00;;;;;;;2.97;100.00;96602.13;4158814;28;20060;-73
2023/03/07 09:08:20;;;;;;;11.55;6.22;;;;;;;2.95;100.00;96593.53;4159184;28;20123;-73
2023/03/07 09:10:21;;;;;;;11.73;6.50;;;;;;;2.98;100.00;96599.03;4159230;28;21248;-73
2023/03/07 09:12:21;;;;;;;11.95;6.22;;;;;;;2.96;100.00;96595.88;4158943;28;20045;-73
2023/03/07 09:14:22;;;;;;;11.20;6.55;;;;;;;3.01;100.00;96583.84;4158771;28;20045;-73
2023/03/07 09:16:22;;;;;;;13.07;7.45;;;;;;;3.01;100.00;96594.78;4159195;28;20151;-73
2023/03/07 09:18:23;;;;;;;11.98;6.60;;;;;;;3.05;100.00;96581.91;4158759;28;20116;-73
2023/03/07 09:20:24;;;;;;;11.18;6.03;;;;;;;3.10;100.00;96582.38;4158700;28;20069;-73
2023/03/07 09:22:26;;;;;;;11.93;6.18;;;;;;;3.11;100.00;96580.44;4158594;28;20057;-73
2023/03/07 09:24:26;;;;;;;9.52;5.63;;;;;;;3.19;100.00;96570.34;4157980;28;20037;-73